sensor_id;sensor_type;location;lat;lon;timestamp;P1;durP1;ratioP1;P2;durP2;ratioP2
78960;SDS011;68362;45.970;12.646;2023-03-14T00:00:56;11.80;;;8.07;;
78960;SDS011;68362;45.970;12.646;2023-03-14T00:01:58;15.00;;;8.73;;
78960;SDS011;68362;45.970;12.646;2023-03-14T00:03:00;10.57;;;7.30;;
78960;SDS011;68362;45.970;12.646;2023-03-14T00:04:03;11.55;;;8.25;;
78960;SDS011;68362;45.970;12.646;2023-03-14T00:05:06;11.32;;;7.43;;
78960;SDS011;68362;45.970;12.646;2023-03-14T00:07:11;15.88;;;7.50;;
78960;SDS011;68362;45.970;12.646;2023-03-14T00:08:13;14.63;;;7.70;;
78960;SDS011;68362;45.970;12.646;2023-03-14T00:09:16;11.88;;;7.05;;
78960;SDS011;68362;45.970;12.646;2023-03-14T00:10:18;11.65;;;7.70;;
78960;SDS011;68362;45.970;12.646;2023-03-14T00:11:21;13.88;;;7.75;;
78960;SDS011;68362;45.970;12.646;2023-03-14T00:12:23;10.35;;;7.30;;
78960;SDS011;68362;45.970;12.646;2023-03-14T00:13:24;11.68;;;7.70;;
78960;SDS011;68362;45.970;12.646;2023-03-14T00:14:26;13.18;;;7.97;;
78960;SDS011;68362;45.970;12.646;2023-03-14T00:15:28;10.95;;;7.30;;
78960;SDS011;68362;45.970;12.646;2023-03-14T00:16:29;11.63;;;8.10;;
78960;SDS011;68362;45.970;12.646;2023-03-14T00:17:31;17.33;;;8.52;;
78960;SDS011;68362;45.970;12.646;2023-03-14T00:18:32;14.48;;;7.65;;
78960;SDS011;68362;45.970;12.646;2023-03-14T00:19:34;16.08;;;8.00;;
78960;SDS011;68362;45.970;12.646;2023-03-14T00:20:36;9.13;;;6.35;;
78960;SDS011;68362;45.970;12.646;2023-03-14T00:21:37;11.95;;;8.85;;
78960;SDS011;68362;45.970;12.646;2023-03-14T00:22:40;11.52;;;7.20;;
78960;SDS011;68362;45.970;12.646;2023-03-14T00:23:42;11.27;;;7.82;;
78960;SDS011;68362;45.970;12.646;2023-03-14T00:24:44;11.95;;;7.40;;
78960;SDS011;68362;45.970;12.646;2023-03-14T00:25:46;12.10;;;7.43;;
78960;SDS011;68362;45.970;12.646;2023-03-14T00:26:47;10.50;;;7.47;;
78960;SDS011;68362;45.970;12.646;2023-03-14T00:27:52;10.25;;;7.55;;
78960;SDS011;68362;45.970;12.646;2023-03-14T00:28:53;9.25;;;7.15;;
78960;SDS011;68362;45.970;12.646;2023-03-14T00:29:55;8.75;;;7.05;;
78960;SDS011;68362;45.970;12.646;2023-03-14T00:30:57;12.73;;;8.07;;
78960;SDS011;68362;45.970;12.646;2023-03-14T00:31:59;13.60;;;8.27;;
78960;SDS011;68362;45.970;12.646;2023-03-14T00:33:00;9.90;;;7.78;;
78960;SDS011;68362;45.970;12.646;2023-03-14T00:34:02;15.45;;;8.85;;
78960;SDS011;68362;45.970;12.646;2023-03-14T00:35:04;12.02;;;7.80;;
78960;SDS011;68362;45.970;12.646;2023-03-14T00:36:08;11.02;;;8.02;;
78960;SDS011;68362;45.970;12.646;2023-03-14T00:37:11;11.02;;;7.75;;
78960;SDS011;68362;45.970;12.646;2023-03-14T00:38:13;11.38;;;7.10;;
78960;SDS011;68362;45.970;12.646;2023-03-14T00:39:15;16.63;;;7.60;;
78960;SDS011;68362;45.970;12.646;2023-03-14T00:40:16;13.38;;;8.43;;
78960;SDS011;68362;45.970;12.646;2023-03-14T00:41:19;10.95;;;8.10;;
78960;SDS011;68362;45.970;12.646;2023-03-14T00:42:25;11.43;;;8.05;;
78960;SDS011;68362;45.970;12.646;2023-03-14T00:43:27;9.73;;;7.25;;
78960;SDS011;68362;45.970;12.646;2023-03-14T00:44:28;14.13;;;8.02;;
78960;SDS011;68362;45.970;12.646;2023-03-14T00:45:30;13.05;;;7.70;;
78960;SDS011;68362;45.970;12.646;2023-03-14T00:46:32;14.27;;;8.45;;
78960;SDS011;68362;45.970;12.646;2023-03-14T00:47:33;12.13;;;7.60;;
78960;SDS011;68362;45.970;12.646;2023-03-14T00:48:35;11.32;;;7.85;;
78960;SDS011;68362;45.970;12.646;2023-03-14T00:49:37;10.65;;;8.38;;
78960;SDS011;68362;45.970;12.646;2023-03-14T00:50:39;17.45;;;7.38;;
78960;SDS011;68362;45.970;12.646;2023-03-14T00:51:41;10.95;;;6.97;;
78960;SDS011;68362;45.970;12.646;2023-03-14T00:52:43;11.25;;;8.57;;
78960;SDS011;68362;45.970;12.646;2023-03-14T00:53:44;12.20;;;8.02;;
78960;SDS011;68362;45.970;12.646;2023-03-14T00:54:46;11.43;;;8.05;;
78960;SDS011;68362;45.970;12.646;2023-03-14T00:55:48;17.00;;;7.80;;
78960;SDS011;68362;45.970;12.646;2023-03-14T00:56:50;10.70;;;8.18;;
78960;SDS011;68362;45.970;12.646;2023-03-14T00:57:51;15.63;;;7.60;;
78960;SDS011;68362;45.970;12.646;2023-03-14T00:58:54;10.77;;;8.27;;
78960;SDS011;68362;45.970;12.646;2023-03-14T00:59:56;10.27;;;7.30;;
78960;SDS011;68362;45.970;12.646;2023-03-14T01:00:58;13.27;;;8.07;;
78960;SDS011;68362;45.970;12.646;2023-03-14T01:02:00;12.02;;;7.65;;
78960;SDS011;68362;45.970;12.646;2023-03-14T01:03:01;17.52;;;8.45;;
78960;SDS011;68362;45.970;12.646;2023-03-14T01:04:04;16.13;;;9.60;;
78960;SDS011;68362;45.970;12.646;2023-03-14T01:05:05;12.07;;;7.72;;
78960;SDS011;68362;45.970;12.646;2023-03-14T01:07:14;12.75;;;7.80;;
78960;SDS011;68362;45.970;12.646;2023-03-14T01:08:16;10.32;;;8.13;;
78960;SDS011;68362;45.970;12.646;2023-03-14T01:09:18;15.43;;;9.20;;
78960;SDS011;68362;45.970;12.646;2023-03-14T01:10:20;11.85;;;8.18;;
78960;SDS011;68362;45.970;12.646;2023-03-14T01:11:26;13.45;;;8.27;;
78960;SDS011;68362;45.970;12.646;2023-03-14T01:12:29;12.13;;;9.13;;
78960;SDS011;68362;45.970;12.646;2023-03-14T01:13:30;15.18;;;9.50;;
78960;SDS011;68362;45.970;12.646;2023-03-14T01:14:32;13.05;;;9.25;;
78960;SDS011;68362;45.970;12.646;2023-03-14T01:15:34;12.98;;;8.85;;
78960;SDS011;68362;45.970;12.646;2023-03-14T01:16:36;13.15;;;8.15;;
78960;SDS011;68362;45.970;12.646;2023-03-14T01:17:37;14.93;;;8.52;;
78960;SDS011;68362;45.970;12.646;2023-03-14T01:19:42;13.90;;;7.28;;
78960;SDS011;68362;45.970;12.646;2023-03-14T01:20:44;11.55;;;8.07;;
78960;SDS011;68362;45.970;12.646;2023-03-14T01:21:46;11.40;;;7.97;;
78960;SDS011;68362;45.970;12.646;2023-03-14T01:22:47;11.63;;;7.85;;
78960;SDS011;68362;45.970;12.646;2023-03-14T01:23:49;13.50;;;7.75;;
78960;SDS011;68362;45.970;12.646;2023-03-14T01:24:52;12.20;;;7.63;;
78960;SDS011;68362;45.970;12.646;2023-03-14T01:25:54;14.20;;;8.18;;
78960;SDS011;68362;45.970;12.646;2023-03-14T01:26:55;15.57;;;8.13;;
78960;SDS011;68362;45.970;12.646;2023-03-14T01:27:57;13.13;;;8.10;;
78960;SDS011;68362;45.970;12.646;2023-03-14T01:28:59;16.08;;;9.25;;
78960;SDS011;68362;45.970;12.646;2023-03-14T01:30:01;15.63;;;8.18;;
78960;SDS011;68362;45.970;12.646;2023-03-14T01:31:04;11.70;;;7.57;;
78960;SDS011;68362;45.970;12.646;2023-03-14T01:32:07;11.90;;;8.15;;
78960;SDS011;68362;45.970;12.646;2023-03-14T01:33:09;11.52;;;8.40;;
78960;SDS011;68362;45.970;12.646;2023-03-14T01:34:10;9.20;;;6.00;;
78960;SDS011;68362;45.970;12.646;2023-03-14T01:35:12;14.18;;;7.68;;
78960;SDS011;68362;45.970;12.646;2023-03-14T01:36:14;16.25;;;9.63;;
78960;SDS011;68362;45.970;12.646;2023-03-14T01:37:16;10.93;;;6.65;;
78960;SDS011;68362;45.970;12.646;2023-03-14T01:38:18;12.50;;;7.90;;
78960;SDS011;68362;45.970;12.646;2023-03-14T01:39:20;11.40;;;7.53;;
78960;SDS011;68362;45.970;12.646;2023-03-14T01:40:21;13.02;;;7.22;;
78960;SDS011;68362;45.970;12.646;2023-03-14T01:41:24;10.98;;;7.32;;
78960;SDS011;68362;45.970;12.646;2023-03-14T01:42:26;10.32;;;7.22;;
78960;SDS011;68362;45.970;12.646;2023-03-14T01:43:28;11.55;;;7.75;;
78960;SDS011;68362;45.970;12.646;2023-03-14T01:44:49;10.65;;;7.18;;
78960;SDS011;68362;45.970;12.646;2023-03-14T01:47:07;11.68;;;7.53;;
78960;SDS011;68362;45.970;12.646;2023-03-14T01:48:09;12.85;;;7.70;;
78960;SDS011;68362;45.970;12.646;2023-03-14T01:50:16;12.73;;;8.30;;
78960;SDS011;68362;45.970;12.646;2023-03-14T01:51:28;11.25;;;7.55;;
78960;SDS011;68362;45.970;12.646;2023-03-14T01:52:44;10.52;;;7.90;;
78960;SDS011;68362;45.970;12.646;2023-03-14T01:53:49;11.18;;;6.30;;
78960;SDS011;68362;45.970;12.646;2023-03-14T01:54:55;13.95;;;7.00;;
78960;SDS011;68362;45.970;12.646;2023-03-14T01:56:00;13.20;;;7.13;;
78960;SDS011;68362;45.970;12.646;2023-03-14T01:57:07;9.25;;;6.85;;
78960;SDS011;68362;45.970;12.646;2023-03-14T01:58:12;13.48;;;7.57;;
78960;SDS011;68362;45.970;12.646;2023-03-14T01:59:15;9.48;;;6.95;;
78960;SDS011;68362;45.970;12.646;2023-03-14T02:00:18;15.77;;;7.05;;
78960;SDS011;68362;45.970;12.646;2023-03-14T02:01:22;10.55;;;7.10;;
78960;SDS011;68362;45.970;12.646;2023-03-14T02:02:26;10.45;;;7.32;;
78960;SDS011;68362;45.970;12.646;2023-03-14T02:03:29;13.63;;;6.90;;
78960;SDS011;68362;45.970;12.646;2023-03-14T02:04:35;12.18;;;7.20;;
78960;SDS011;68362;45.970;12.646;2023-03-14T02:05:40;10.75;;;6.43;;
78960;SDS011;68362;45.970;12.646;2023-03-14T02:06:46;11.65;;;7.38;;
78960;SDS011;68362;45.970;12.646;2023-03-14T02:07:52;10.50;;;7.68;;
78960;SDS011;68362;45.970;12.646;2023-03-14T02:08:55;9.05;;;6.05;;
78960;SDS011;68362;45.970;12.646;2023-03-14T02:09:57;11.05;;;7.63;;
78960;SDS011;68362;45.970;12.646;2023-03-14T02:11:01;10.40;;;7.47;;
78960;SDS011;68362;45.970;12.646;2023-03-14T02:12:02;11.73;;;7.72;;
78960;SDS011;68362;45.970;12.646;2023-03-14T02:13:04;14.70;;;8.98;;
78960;SDS011;68362;45.970;12.646;2023-03-14T02:14:07;12.90;;;9.07;;
78960;SDS011;68362;45.970;12.646;2023-03-14T02:15:17;9.95;;;6.75;;
78960;SDS011;68362;45.970;12.646;2023-03-14T02:16:18;11.40;;;8.05;;
78960;SDS011;68362;45.970;12.646;2023-03-14T02:17:20;12.63;;;7.78;;
78960;SDS011;68362;45.970;12.646;2023-03-14T02:18:24;13.88;;;8.38;;
78960;SDS011;68362;45.970;12.646;2023-03-14T02:19:31;15.05;;;9.20;;
78960;SDS011;68362;45.970;12.646;2023-03-14T02:20:53;13.75;;;8.65;;
78960;SDS011;68362;45.970;12.646;2023-03-14T02:22:09;17.00;;;9.48;;
78960;SDS011;68362;45.970;12.646;2023-03-14T02:23:13;12.50;;;7.95;;
78960;SDS011;68362;45.970;12.646;2023-03-14T02:28:22;13.18;;;7.97;;
78960;SDS011;68362;45.970;12.646;2023-03-14T02:29:23;12.45;;;8.75;;
78960;SDS011;68362;45.970;12.646;2023-03-14T02:30:26;11.43;;;7.85;;
78960;SDS011;68362;45.970;12.646;2023-03-14T02:31:30;12.57;;;8.50;;
78960;SDS011;68362;45.970;12.646;2023-03-14T02:32:32;10.55;;;7.25;;
78960;SDS011;68362;45.970;12.646;2023-03-14T02:33:36;14.55;;;7.28;;
78960;SDS011;68362;45.970;12.646;2023-03-14T02:34:39;12.15;;;7.97;;
78960;SDS011;68362;45.970;12.646;2023-03-14T02:36:45;13.15;;;7.68;;
78960;SDS011;68362;45.970;12.646;2023-03-14T02:37:48;11.60;;;9.07;;
78960;SDS011;68362;45.970;12.646;2023-03-14T02:38:56;11.65;;;7.10;;
78960;SDS011;68362;45.970;12.646;2023-03-14T02:40:06;14.25;;;6.78;;
78960;SDS011;68362;45.970;12.646;2023-03-14T02:42:11;13.30;;;6.80;;
78960;SDS011;68362;45.970;12.646;2023-03-14T02:43:14;11.23;;;7.47;;
78960;SDS011;68362;45.970;12.646;2023-03-14T02:44:16;11.38;;;6.95;;
78960;SDS011;68362;45.970;12.646;2023-03-14T02:46:20;10.43;;;6.97;;
78960;SDS011;68362;45.970;12.646;2023-03-14T02:47:26;12.90;;;6.38;;
78960;SDS011;68362;45.970;12.646;2023-03-14T02:48:31;10.55;;;6.13;;
78960;SDS011;68362;45.970;12.646;2023-03-14T02:49:36;9.73;;;6.63;;
78960;SDS011;68362;45.970;12.646;2023-03-14T02:50:38;9.60;;;6.78;;
78960;SDS011;68362;45.970;12.646;2023-03-14T02:51:40;11.27;;;6.82;;
78960;SDS011;68362;45.970;12.646;2023-03-14T02:52:44;11.50;;;6.28;;
78960;SDS011;68362;45.970;12.646;2023-03-14T02:53:46;11.57;;;6.60;;
78960;SDS011;68362;45.970;12.646;2023-03-14T02:54:47;9.10;;;6.47;;
78960;SDS011;68362;45.970;12.646;2023-03-14T02:55:49;10.45;;;6.32;;
78960;SDS011;68362;45.970;12.646;2023-03-14T02:56:51;8.10;;;5.65;;
78960;SDS011;68362;45.970;12.646;2023-03-14T02:57:53;10.93;;;6.53;;
78960;SDS011;68362;45.970;12.646;2023-03-14T02:58:54;9.20;;;5.95;;
78960;SDS011;68362;45.970;12.646;2023-03-14T02:59:59;11.20;;;6.43;;
78960;SDS011;68362;45.970;12.646;2023-03-14T03:01:02;10.35;;;6.90;;
78960;SDS011;68362;45.970;12.646;2023-03-14T03:02:04;8.48;;;6.75;;
78960;SDS011;68362;45.970;12.646;2023-03-14T03:03:05;9.50;;;6.65;;
78960;SDS011;68362;45.970;12.646;2023-03-14T03:04:07;10.68;;;6.55;;
78960;SDS011;68362;45.970;12.646;2023-03-14T03:05:09;11.45;;;6.07;;
78960;SDS011;68362;45.970;12.646;2023-03-14T03:06:11;10.10;;;6.80;;
78960;SDS011;68362;45.970;12.646;2023-03-14T03:07:12;9.32;;;7.28;;
78960;SDS011;68362;45.970;12.646;2023-03-14T03:08:14;10.63;;;6.38;;
78960;SDS011;68362;45.970;12.646;2023-03-14T03:09:16;9.77;;;6.55;;
78960;SDS011;68362;45.970;12.646;2023-03-14T03:10:17;9.02;;;5.85;;
78960;SDS011;68362;45.970;12.646;2023-03-14T03:11:19;9.13;;;6.40;;
78960;SDS011;68362;45.970;12.646;2023-03-14T03:12:21;11.07;;;7.07;;
78960;SDS011;68362;45.970;12.646;2023-03-14T03:13:22;9.27;;;6.53;;
78960;SDS011;68362;45.970;12.646;2023-03-14T03:14:24;11.43;;;6.95;;
78960;SDS011;68362;45.970;12.646;2023-03-14T03:15:26;9.57;;;6.65;;
78960;SDS011;68362;45.970;12.646;2023-03-14T03:16:28;12.50;;;7.53;;
78960;SDS011;68362;45.970;12.646;2023-03-14T03:17:30;8.77;;;6.53;;
78960;SDS011;68362;45.970;12.646;2023-03-14T03:18:31;9.05;;;7.03;;
78960;SDS011;68362;45.970;12.646;2023-03-14T03:19:33;10.70;;;7.10;;
78960;SDS011;68362;45.970;12.646;2023-03-14T03:20:35;9.60;;;6.45;;
78960;SDS011;68362;45.970;12.646;2023-03-14T03:21:37;10.57;;;6.55;;
78960;SDS011;68362;45.970;12.646;2023-03-14T03:22:39;10.98;;;8.00;;
78960;SDS011;68362;45.970;12.646;2023-03-14T03:23:41;10.60;;;7.32;;
78960;SDS011;68362;45.970;12.646;2023-03-14T03:24:42;10.00;;;7.00;;
78960;SDS011;68362;45.970;12.646;2023-03-14T03:25:51;9.77;;;6.78;;
78960;SDS011;68362;45.970;12.646;2023-03-14T03:26:53;11.82;;;7.35;;
78960;SDS011;68362;45.970;12.646;2023-03-14T03:27:54;11.73;;;7.40;;
78960;SDS011;68362;45.970;12.646;2023-03-14T03:28:56;11.13;;;7.15;;
78960;SDS011;68362;45.970;12.646;2023-03-14T03:29:58;9.93;;;7.00;;
78960;SDS011;68362;45.970;12.646;2023-03-14T03:31:06;12.07;;;7.63;;
78960;SDS011;68362;45.970;12.646;2023-03-14T03:32:09;9.95;;;6.47;;
78960;SDS011;68362;45.970;12.646;2023-03-14T03:33:11;10.02;;;6.63;;
78960;SDS011;68362;45.970;12.646;2023-03-14T03:34:13;8.95;;;5.85;;
78960;SDS011;68362;45.970;12.646;2023-03-14T03:35:15;12.52;;;6.85;;
78960;SDS011;68362;45.970;12.646;2023-03-14T03:36:20;10.73;;;6.68;;
78960;SDS011;68362;45.970;12.646;2023-03-14T03:37:24;8.68;;;6.60;;
78960;SDS011;68362;45.970;12.646;2023-03-14T03:38:25;10.35;;;6.70;;
78960;SDS011;68362;45.970;12.646;2023-03-14T03:39:27;10.43;;;6.63;;
78960;SDS011;68362;45.970;12.646;2023-03-14T03:40:29;8.05;;;6.72;;
78960;SDS011;68362;45.970;12.646;2023-03-14T03:41:31;11.98;;;6.80;;
78960;SDS011;68362;45.970;12.646;2023-03-14T03:42:33;11.05;;;6.40;;
78960;SDS011;68362;45.970;12.646;2023-03-14T03:43:35;9.65;;;5.88;;
78960;SDS011;68362;45.970;12.646;2023-03-14T03:44:37;10.30;;;6.57;;
78960;SDS011;68362;45.970;12.646;2023-03-14T03:45:39;7.90;;;6.55;;
78960;SDS011;68362;45.970;12.646;2023-03-14T03:46:41;9.38;;;7.57;;
78960;SDS011;68362;45.970;12.646;2023-03-14T03:47:43;10.90;;;6.90;;
78960;SDS011;68362;45.970;12.646;2023-03-14T03:48:44;9.57;;;7.05;;
78960;SDS011;68362;45.970;12.646;2023-03-14T03:49:46;12.57;;;6.90;;
78960;SDS011;68362;45.970;12.646;2023-03-14T03:50:48;7.72;;;6.13;;
78960;SDS011;68362;45.970;12.646;2023-03-14T03:51:50;9.85;;;6.60;;
78960;SDS011;68362;45.970;12.646;2023-03-14T03:52:51;9.35;;;7.10;;
78960;SDS011;68362;45.970;12.646;2023-03-14T03:53:53;8.00;;;5.82;;
78960;SDS011;68362;45.970;12.646;2023-03-14T03:54:55;10.43;;;5.90;;
78960;SDS011;68362;45.970;12.646;2023-03-14T03:55:57;9.48;;;6.57;;
78960;SDS011;68362;45.970;12.646;2023-03-14T03:56:59;7.30;;;5.43;;
78960;SDS011;68362;45.970;12.646;2023-03-14T03:58:00;11.18;;;6.00;;
78960;SDS011;68362;45.970;12.646;2023-03-14T03:59:02;9.20;;;5.90;;
78960;SDS011;68362;45.970;12.646;2023-03-14T04:00:04;10.32;;;6.03;;
78960;SDS011;68362;45.970;12.646;2023-03-14T04:01:07;8.45;;;5.50;;
78960;SDS011;68362;45.970;12.646;2023-03-14T04:02:10;8.93;;;5.53;;
78960;SDS011;68362;45.970;12.646;2023-03-14T04:03:12;8.15;;;5.13;;
78960;SDS011;68362;45.970;12.646;2023-03-14T04:04:14;8.60;;;5.38;;
78960;SDS011;68362;45.970;12.646;2023-03-14T04:05:16;9.10;;;6.30;;
78960;SDS011;68362;45.970;12.646;2023-03-14T04:06:17;10.45;;;5.45;;
78960;SDS011;68362;45.970;12.646;2023-03-14T04:07:19;8.57;;;4.97;;
78960;SDS011;68362;45.970;12.646;2023-03-14T04:08:21;9.65;;;7.00;;
78960;SDS011;68362;45.970;12.646;2023-03-14T04:09:22;8.30;;;5.95;;
78960;SDS011;68362;45.970;12.646;2023-03-14T04:10:24;9.20;;;6.45;;
78960;SDS011;68362;45.970;12.646;2023-03-14T04:11:25;13.27;;;5.97;;
78960;SDS011;68362;45.970;12.646;2023-03-14T04:12:27;7.50;;;5.80;;
78960;SDS011;68362;45.970;12.646;2023-03-14T04:13:29;8.35;;;5.32;;
78960;SDS011;68362;45.970;12.646;2023-03-14T04:14:31;10.50;;;6.10;;
78960;SDS011;68362;45.970;12.646;2023-03-14T04:15:32;11.80;;;5.82;;
78960;SDS011;68362;45.970;12.646;2023-03-14T04:16:34;10.00;;;6.78;;
78960;SDS011;68362;45.970;12.646;2023-03-14T04:17:36;10.55;;;6.13;;
78960;SDS011;68362;45.970;12.646;2023-03-14T04:18:37;8.00;;;5.28;;
78960;SDS011;68362;45.970;12.646;2023-03-14T04:19:39;8.32;;;5.25;;
78960;SDS011;68362;45.970;12.646;2023-03-14T04:20:40;10.35;;;6.35;;
78960;SDS011;68362;45.970;12.646;2023-03-14T04:21:42;8.35;;;6.00;;
78960;SDS011;68362;45.970;12.646;2023-03-14T04:22:46;9.00;;;6.72;;
78960;SDS011;68362;45.970;12.646;2023-03-14T04:23:48;8.30;;;5.47;;
78960;SDS011;68362;45.970;12.646;2023-03-14T04:24:49;10.60;;;5.88;;
78960;SDS011;68362;45.970;12.646;2023-03-14T04:25:51;12.00;;;6.18;;
78960;SDS011;68362;45.970;12.646;2023-03-14T04:26:53;9.48;;;5.55;;
78960;SDS011;68362;45.970;12.646;2023-03-14T04:27:55;9.15;;;5.93;;
78960;SDS011;68362;45.970;12.646;2023-03-14T04:28:57;7.55;;;5.22;;
78960;SDS011;68362;45.970;12.646;2023-03-14T04:29:59;10.82;;;6.07;;
78960;SDS011;68362;45.970;12.646;2023-03-14T04:31:06;10.35;;;6.35;;
78960;SDS011;68362;45.970;12.646;2023-03-14T04:32:12;9.30;;;5.95;;
78960;SDS011;68362;45.970;12.646;2023-03-14T04:33:14;10.88;;;6.13;;
78960;SDS011;68362;45.970;12.646;2023-03-14T04:34:18;7.43;;;5.68;;
78960;SDS011;68362;45.970;12.646;2023-03-14T04:35:20;9.63;;;5.38;;
78960;SDS011;68362;45.970;12.646;2023-03-14T04:36:21;8.10;;;5.53;;
78960;SDS011;68362;45.970;12.646;2023-03-14T04:37:23;8.15;;;5.95;;
78960;SDS011;68362;45.970;12.646;2023-03-14T04:38:25;9.40;;;5.68;;
78960;SDS011;68362;45.970;12.646;2023-03-14T04:39:26;7.53;;;5.38;;
78960;SDS011;68362;45.970;12.646;2023-03-14T04:40:28;9.80;;;5.78;;
78960;SDS011;68362;45.970;12.646;2023-03-14T04:41:30;9.43;;;4.82;;
78960;SDS011;68362;45.970;12.646;2023-03-14T04:42:32;7.50;;;5.30;;
78960;SDS011;68362;45.970;12.646;2023-03-14T04:43:33;9.23;;;5.28;;
78960;SDS011;68362;45.970;12.646;2023-03-14T04:44:35;7.05;;;5.80;;
78960;SDS011;68362;45.970;12.646;2023-03-14T04:45:37;7.22;;;4.85;;
78960;SDS011;68362;45.970;12.646;2023-03-14T04:46:43;7.47;;;5.25;;
78960;SDS011;68362;45.970;12.646;2023-03-14T04:47:44;9.07;;;5.60;;
78960;SDS011;68362;45.970;12.646;2023-03-14T04:48:46;12.93;;;5.05;;
78960;SDS011;68362;45.970;12.646;2023-03-14T04:49:48;8.38;;;4.90;;
78960;SDS011;68362;45.970;12.646;2023-03-14T04:50:49;8.00;;;5.35;;
78960;SDS011;68362;45.970;12.646;2023-03-14T04:51:51;7.72;;;5.80;;
78960;SDS011;68362;45.970;12.646;2023-03-14T04:52:52;7.63;;;5.70;;
78960;SDS011;68362;45.970;12.646;2023-03-14T04:53:54;8.23;;;5.18;;
78960;SDS011;68362;45.970;12.646;2023-03-14T04:54:56;7.82;;;5.10;;
78960;SDS011;68362;45.970;12.646;2023-03-14T04:55:58;8.52;;;5.25;;
78960;SDS011;68362;45.970;12.646;2023-03-14T04:56:59;7.72;;;4.88;;
78960;SDS011;68362;45.970;12.646;2023-03-14T04:58:01;6.82;;;5.03;;
78960;SDS011;68362;45.970;12.646;2023-03-14T04:59:03;7.28;;;4.72;;
78960;SDS011;68362;45.970;12.646;2023-03-14T05:01:07;7.65;;;5.25;;
78960;SDS011;68362;45.970;12.646;2023-03-14T05:02:09;8.38;;;5.38;;
78960;SDS011;68362;45.970;12.646;2023-03-14T05:03:11;8.75;;;5.60;;
78960;SDS011;68362;45.970;12.646;2023-03-14T05:04:12;8.90;;;5.45;;
78960;SDS011;68362;45.970;12.646;2023-03-14T05:05:14;10.23;;;6.32;;
78960;SDS011;68362;45.970;12.646;2023-03-14T05:06:16;8.00;;;5.63;;
78960;SDS011;68362;45.970;12.646;2023-03-14T05:07:17;7.18;;;5.25;;
78960;SDS011;68362;45.970;12.646;2023-03-14T05:08:19;9.23;;;5.43;;
78960;SDS011;68362;45.970;12.646;2023-03-14T05:09:21;8.63;;;5.60;;
78960;SDS011;68362;45.970;12.646;2023-03-14T05:10:22;11.52;;;5.82;;
78960;SDS011;68362;45.970;12.646;2023-03-14T05:11:24;8.18;;;5.10;;
78960;SDS011;68362;45.970;12.646;2023-03-14T05:12:26;11.10;;;5.50;;
78960;SDS011;68362;45.970;12.646;2023-03-14T05:13:28;10.65;;;5.95;;
78960;SDS011;68362;45.970;12.646;2023-03-14T05:14:29;8.18;;;5.18;;
78960;SDS011;68362;45.970;12.646;2023-03-14T05:15:31;10.00;;;5.10;;
78960;SDS011;68362;45.970;12.646;2023-03-14T05:16:33;10.98;;;4.85;;
78960;SDS011;68362;45.970;12.646;2023-03-14T05:17:34;8.82;;;5.57;;
78960;SDS011;68362;45.970;12.646;2023-03-14T05:18:37;19.27;;;5.43;;
78960;SDS011;68362;45.970;12.646;2023-03-14T05:19:39;7.55;;;5.25;;
78960;SDS011;68362;45.970;12.646;2023-03-14T05:20:40;10.05;;;5.85;;
78960;SDS011;68362;45.970;12.646;2023-03-14T05:21:44;10.45;;;5.28;;
78960;SDS011;68362;45.970;12.646;2023-03-14T05:22:46;8.95;;;5.35;;
78960;SDS011;68362;45.970;12.646;2023-03-14T05:23:48;14.23;;;5.63;;
78960;SDS011;68362;45.970;12.646;2023-03-14T05:24:49;8.27;;;5.03;;
78960;SDS011;68362;45.970;12.646;2023-03-14T05:25:51;16.27;;;6.05;;
78960;SDS011;68362;45.970;12.646;2023-03-14T05:26:52;16.83;;;6.40;;
78960;SDS011;68362;45.970;12.646;2023-03-14T05:27:54;14.95;;;5.78;;
78960;SDS011;68362;45.970;12.646;2023-03-14T05:28:56;10.40;;;5.43;;
78960;SDS011;68362;45.970;12.646;2023-03-14T05:29:58;8.50;;;5.38;;
78960;SDS011;68362;45.970;12.646;2023-03-14T05:30:59;9.35;;;5.80;;
78960;SDS011;68362;45.970;12.646;2023-03-14T05:32:01;10.30;;;5.05;;
78960;SDS011;68362;45.970;12.646;2023-03-14T05:33:03;17.58;;;6.93;;
78960;SDS011;68362;45.970;12.646;2023-03-14T05:34:04;12.85;;;5.75;;
78960;SDS011;68362;45.970;12.646;2023-03-14T05:35:06;11.30;;;6.10;;
78960;SDS011;68362;45.970;12.646;2023-03-14T05:36:08;10.85;;;5.50;;
78960;SDS011;68362;45.970;12.646;2023-03-14T05:37:10;11.05;;;6.50;;
78960;SDS011;68362;45.970;12.646;2023-03-14T05:38:11;10.43;;;5.20;;
78960;SDS011;68362;45.970;12.646;2023-03-14T05:39:13;9.52;;;4.57;;
78960;SDS011;68362;45.970;12.646;2023-03-14T05:40:15;12.27;;;6.30;;
78960;SDS011;68362;45.970;12.646;2023-03-14T05:41:16;9.88;;;5.90;;
78960;SDS011;68362;45.970;12.646;2023-03-14T05:42:18;13.95;;;6.60;;
78960;SDS011;68362;45.970;12.646;2023-03-14T05:43:20;9.77;;;5.85;;
78960;SDS011;68362;45.970;12.646;2023-03-14T05:44:22;11.15;;;5.95;;
78960;SDS011;68362;45.970;12.646;2023-03-14T05:45:24;9.75;;;6.03;;
78960;SDS011;68362;45.970;12.646;2023-03-14T05:46:25;12.35;;;6.72;;
78960;SDS011;68362;45.970;12.646;2023-03-14T05:47:27;11.35;;;5.97;;
78960;SDS011;68362;45.970;12.646;2023-03-14T05:48:29;12.55;;;6.03;;
78960;SDS011;68362;45.970;12.646;2023-03-14T05:49:30;9.98;;;7.05;;
78960;SDS011;68362;45.970;12.646;2023-03-14T05:50:32;16.58;;;6.97;;
78960;SDS011;68362;45.970;12.646;2023-03-14T05:51:34;11.38;;;6.68;;
78960;SDS011;68362;45.970;12.646;2023-03-14T05:52:35;8.55;;;6.57;;
78960;SDS011;68362;45.970;12.646;2023-03-14T05:53:37;17.67;;;6.65;;
78960;SDS011;68362;45.970;12.646;2023-03-14T05:54:39;11.88;;;6.45;;
78960;SDS011;68362;45.970;12.646;2023-03-14T05:55:40;9.35;;;6.15;;
78960;SDS011;68362;45.970;12.646;2023-03-14T05:56:42;11.35;;;6.35;;
78960;SDS011;68362;45.970;12.646;2023-03-14T05:57:44;11.55;;;6.03;;
78960;SDS011;68362;45.970;12.646;2023-03-14T05:58:45;11.55;;;6.60;;
78960;SDS011;68362;45.970;12.646;2023-03-14T05:59:47;12.55;;;6.47;;
78960;SDS011;68362;45.970;12.646;2023-03-14T06:00:49;10.35;;;6.65;;
78960;SDS011;68362;45.970;12.646;2023-03-14T06:01:51;10.50;;;5.57;;
78960;SDS011;68362;45.970;12.646;2023-03-14T06:02:53;14.00;;;6.88;;
78960;SDS011;68362;45.970;12.646;2023-03-14T06:03:55;11.20;;;5.45;;
78960;SDS011;68362;45.970;12.646;2023-03-14T06:04:57;9.65;;;6.15;;
78960;SDS011;68362;45.970;12.646;2023-03-14T06:05:58;13.43;;;6.82;;
78960;SDS011;68362;45.970;12.646;2023-03-14T06:07:00;10.43;;;5.30;;
78960;SDS011;68362;45.970;12.646;2023-03-14T06:08:02;12.40;;;5.90;;
78960;SDS011;68362;45.970;12.646;2023-03-14T06:09:03;10.90;;;5.57;;
78960;SDS011;68362;45.970;12.646;2023-03-14T06:10:05;7.75;;;5.40;;
78960;SDS011;68362;45.970;12.646;2023-03-14T06:11:07;8.90;;;5.47;;
78960;SDS011;68362;45.970;12.646;2023-03-14T06:12:09;7.07;;;5.03;;
78960;SDS011;68362;45.970;12.646;2023-03-14T06:13:11;11.52;;;4.95;;
78960;SDS011;68362;45.970;12.646;2023-03-14T06:14:12;7.72;;;5.10;;
78960;SDS011;68362;45.970;12.646;2023-03-14T06:15:14;6.97;;;5.20;;
78960;SDS011;68362;45.970;12.646;2023-03-14T06:16:16;9.20;;;5.55;;
78960;SDS011;68362;45.970;12.646;2023-03-14T06:17:17;7.85;;;4.95;;
78960;SDS011;68362;45.970;12.646;2023-03-14T06:18:19;7.63;;;5.55;;
78960;SDS011;68362;45.970;12.646;2023-03-14T06:19:21;9.40;;;5.03;;
78960;SDS011;68362;45.970;12.646;2023-03-14T06:20:22;19.05;;;5.90;;
78960;SDS011;68362;45.970;12.646;2023-03-14T06:21:24;7.82;;;5.25;;